createdAt,value
2018-07-15T00:01:27.591Z,3.03
2018-07-15T00:03:56.673Z,2.50
2018-07-15T00:06:25.894Z,3.00
2018-07-15T00:08:55.887Z,2.87
2018-07-15T00:11:25.007Z,3.00
2018-07-15T00:13:53.946Z,2.90
2018-07-15T00:16:22.964Z,2.93
2018-07-15T00:18:52.059Z,3.10
2018-07-15T00:21:21.233Z,2.93
2018-07-15T00:23:50.470Z,2.80
2018-07-15T00:26:19.740Z,3.07
2018-07-15T00:28:48.893Z,3.00
2018-07-15T00:31:18.033Z,3.20
2018-07-15T00:33:47.269Z,3.10
2018-07-15T00:36:16.022Z,3.23
2018-07-15T00:38:45.142Z,3.20
2018-07-15T00:41:14.352Z,2.93
2018-07-15T00:43:43.203Z,3.87
2018-07-15T00:46:12.203Z,3.40
2018-07-15T00:48:42.320Z,3.50
2018-07-15T00:51:11.623Z,3.17
2018-07-15T00:53:40.816Z,3.73
2018-07-15T00:56:09.656Z,3.30
2018-07-15T00:58:38.380Z,4.00
2018-07-15T01:01:07.362Z,4.33
2018-07-15T01:03:36.609Z,4.00
2018-07-15T01:06:05.522Z,4.10
2018-07-15T01:08:34.245Z,4.10
2018-07-15T01:11:03.220Z,4.80
2018-07-15T01:13:32.607Z,3.20
2018-07-15T01:16:01.632Z,3.27
2018-07-15T01:18:30.703Z,3.57
2018-07-15T01:21:01.063Z,3.60
2018-07-15T01:23:30.582Z,3.47
2018-07-15T01:25:59.838Z,4.40
2018-07-15T01:28:28.958Z,3.87
2018-07-15T01:30:58.691Z,4.10
2018-07-15T01:33:27.712Z,4.43
2018-07-15T01:35:56.941Z,4.77
2018-07-15T01:38:26.135Z,3.90
2018-07-15T01:40:55.307Z,3.87
2018-07-15T01:43:24.425Z,3.90
2018-07-15T01:45:53.715Z,3.43
2018-07-15T01:48:22.801Z,4.37
2018-07-15T01:50:51.931Z,3.80
2018-07-15T01:53:21.083Z,3.07
2018-07-15T01:55:50.275Z,3.37
2018-07-15T01:58:19.836Z,3.27
2018-07-15T02:00:48.805Z,3.90
2018-07-15T02:03:17.950Z,4.67
2018-07-15T02:05:47.002Z,3.53
2018-07-15T02:08:16.222Z,2.80
2018-07-15T02:10:45.393Z,2.80
2018-07-15T02:13:14.474Z,3.63
2018-07-15T02:15:43.542Z,3.30
2018-07-15T02:18:12.623Z,2.97
2018-07-15T02:20:41.722Z,2.40
2018-07-15T02:23:10.633Z,2.50
2018-07-15T02:25:39.614Z,2.50
2018-07-15T02:28:08.435Z,2.53
2018-07-15T02:30:37.412Z,2.70
2018-07-15T02:33:06.512Z,2.60
2018-07-15T02:35:35.658Z,2.57
2018-07-15T02:38:04.870Z,2.77
2018-07-15T02:40:34.013Z,2.90
2018-07-15T02:43:03.046Z,2.60
2018-07-15T02:45:32.220Z,2.80
2018-07-15T02:48:01.513Z,3.13
2018-07-15T02:50:30.926Z,2.87
2018-07-15T02:53:00.076Z,3.10
2018-07-15T02:55:29.340Z,3.10
2018-07-15T02:57:58.429Z,3.10
2018-07-15T03:00:29.115Z,2.50
2018-07-15T03:02:59.147Z,2.37
2018-07-15T03:05:28.280Z,3.00
2018-07-15T03:07:57.466Z,3.00
2018-07-15T03:10:26.648Z,3.03
2018-07-15T03:12:56.027Z,2.60
2018-07-15T03:15:25.175Z,2.90
2018-07-15T03:17:54.390Z,2.70
2018-07-15T03:20:23.480Z,2.70
2018-07-15T03:22:52.565Z,3.33
2018-07-15T03:25:22.375Z,3.13
2018-07-15T03:27:51.406Z,3.00
2018-07-15T03:30:20.482Z,2.63
2018-07-15T03:32:49.552Z,3.03
2018-07-15T03:35:18.604Z,2.60
2018-07-15T03:37:47.689Z,2.53
2018-07-15T03:40:17.769Z,2.40
2018-07-15T03:42:47.411Z,2.60
2018-07-15T03:45:16.487Z,2.50
2018-07-15T03:47:45.606Z,3.00
2018-07-15T03:50:14.718Z,2.30
2018-07-15T03:52:43.775Z,2.40
2018-07-15T03:55:12.839Z,2.57
2018-07-15T03:57:42.014Z,2.50
2018-07-15T04:00:13.715Z,3.20
2018-07-15T04:02:42.825Z,2.83
2018-07-15T04:05:11.975Z,2.50
2018-07-15T04:07:41.102Z,2.10
2018-07-15T04:10:10.250Z,2.33
2018-07-15T04:12:39.355Z,2.50
2018-07-15T04:15:08.646Z,2.33
2018-07-15T04:17:37.823Z,2.40
2018-07-15T04:20:06.909Z,2.57
2018-07-15T04:22:36.056Z,2.70
2018-07-15T04:25:05.149Z,2.50
2018-07-15T04:27:34.254Z,2.50
2018-07-15T04:30:03.053Z,2.57
2018-07-15T04:32:32.081Z,2.30
2018-07-15T04:35:01.183Z,2.30
2018-07-15T04:37:30.295Z,2.20
2018-07-15T04:39:59.393Z,2.40
2018-07-15T04:42:28.469Z,2.10
2018-07-15T04:44:57.586Z,2.40
2018-07-15T04:47:26.698Z,2.17
2018-07-15T04:49:55.741Z,2.30
2018-07-15T04:52:24.818Z,2.13
2018-07-15T04:54:53.924Z,2.40
2018-07-15T04:57:23.399Z,2.13
2018-07-15T04:59:52.494Z,2.30
2018-07-15T05:02:21.599Z,2.20
2018-07-15T05:04:50.701Z,2.00
2018-07-15T05:07:19.775Z,2.23
2018-07-15T05:09:48.908Z,2.23
2018-07-15T05:12:18.010Z,1.67
2018-07-15T05:14:47.125Z,1.93
2018-07-15T05:17:16.269Z,2.10
2018-07-15T05:19:46.403Z,2.00
2018-07-15T05:22:15.501Z,2.00
2018-07-15T05:24:44.597Z,1.97
2018-07-15T05:27:13.685Z,2.00
2018-07-15T05:29:42.806Z,2.03
2018-07-15T05:32:11.971Z,2.03
2018-07-15T05:34:41.817Z,2.00
2018-07-15T05:37:10.882Z,1.87
2018-07-15T05:39:39.950Z,1.80
2018-07-15T05:42:09.061Z,1.90
2018-07-15T05:44:37.770Z,1.73
2018-07-15T05:47:06.775Z,1.90
2018-07-15T05:49:36.021Z,1.60
2018-07-15T05:52:04.850Z,1.50
2018-07-15T05:54:33.770Z,1.77
2018-07-15T05:57:02.875Z,2.00
2018-07-15T05:59:31.965Z,1.73
2018-07-15T06:02:01.051Z,1.90
2018-07-15T06:04:30.195Z,1.80
2018-07-15T06:06:59.226Z,1.83
2018-07-15T06:09:28.296Z,1.60
2018-07-15T06:11:58.327Z,1.90
2018-07-15T06:14:27.413Z,1.87
2018-07-15T06:16:56.678Z,1.67
2018-07-15T06:19:25.513Z,2.00
2018-07-15T06:21:54.472Z,1.60
2018-07-15T06:24:23.601Z,1.70
2018-07-15T06:26:53.057Z,1.30
2018-07-15T06:29:22.218Z,1.13
2018-07-15T06:31:51.339Z,1.50
2018-07-15T06:34:20.561Z,1.60
2018-07-15T06:36:49.560Z,1.60
2018-07-15T06:39:19.340Z,1.50
2018-07-15T06:41:48.226Z,1.50
2018-07-15T06:44:17.238Z,1.30
2018-07-15T06:46:46.422Z,1.47
2018-07-15T06:49:15.327Z,1.40
2018-07-15T06:51:44.288Z,1.50
2018-07-15T06:54:13.373Z,1.30
2018-07-15T06:56:42.959Z,1.40
2018-07-15T06:59:12.030Z,1.50
2018-07-15T07:01:41.215Z,1.50
2018-07-15T07:04:11.610Z,1.33
2018-07-15T07:06:40.659Z,1.67
2018-07-15T07:09:10.699Z,1.10
2018-07-15T07:11:39.851Z,1.30
2018-07-15T07:14:09.001Z,1.30
2018-07-15T07:16:38.103Z,1.17
2018-07-15T07:19:07.962Z,1.47
2018-07-15T07:21:36.974Z,1.50
2018-07-15T07:24:06.121Z,1.27
2018-07-15T07:26:35.202Z,1.40
2018-07-15T07:29:04.337Z,1.40
2018-07-15T07:31:34.206Z,2.23
2018-07-15T07:34:03.444Z,3.23
2018-07-15T07:36:32.560Z,1.10
2018-07-15T07:39:01.684Z,2.80
2018-07-15T07:41:30.871Z,1.87
2018-07-15T07:44:00.056Z,2.50
2018-07-15T07:46:29.183Z,2.97
2018-07-15T07:48:58.321Z,1.50
2018-07-15T07:51:27.401Z,1.20
2018-07-15T07:53:56.205Z,1.27
2018-07-15T07:56:24.987Z,1.27
2018-07-15T07:58:53.789Z,1.50
2018-07-15T08:01:23.000Z,1.20
2018-07-15T08:03:52.233Z,1.80
2018-07-15T08:06:21.390Z,1.30
2018-07-15T08:08:51.008Z,1.27
2018-07-15T08:11:20.061Z,1.30
2018-07-15T08:13:49.199Z,1.30
2018-07-15T08:16:18.348Z,1.10
2018-07-15T08:18:47.469Z,1.30
2018-07-15T08:21:16.594Z,2.23
2018-07-15T08:23:45.670Z,1.20
2018-07-15T08:26:14.787Z,1.13
2018-07-15T08:28:43.855Z,1.40
2018-07-15T08:31:16.808Z,1.30
2018-07-15T08:33:45.926Z,1.90
2018-07-15T08:36:15.073Z,1.60
2018-07-15T08:38:44.234Z,1.40
2018-07-15T08:41:14.299Z,1.23
2018-07-15T08:43:43.186Z,1.43
2018-07-15T08:46:12.236Z,1.30
2018-07-15T08:48:41.498Z,1.77
2018-07-15T08:51:10.631Z,1.60
2018-07-15T08:53:39.801Z,1.37
2018-07-15T08:56:08.966Z,1.20
2018-07-15T08:58:38.566Z,1.27
2018-07-15T09:01:07.565Z,1.37
2018-07-15T09:03:36.662Z,1.50
2018-07-15T09:06:05.759Z,1.20
2018-07-15T09:08:34.698Z,1.40
2018-07-15T09:11:03.775Z,1.27
2018-07-15T09:13:34.036Z,1.40
2018-07-15T09:16:03.215Z,1.43
2018-07-15T09:18:32.292Z,1.40
2018-07-15T09:21:01.404Z,1.60
2018-07-15T09:23:30.443Z,1.50
2018-07-15T09:25:59.256Z,1.73
2018-07-15T09:28:28.403Z,1.37
2018-07-15T09:30:57.566Z,1.50
2018-07-15T09:33:26.719Z,1.50
2018-07-15T09:35:55.586Z,1.50
2018-07-15T09:38:24.658Z,1.40
2018-07-15T09:40:53.797Z,1.47
2018-07-15T09:43:22.915Z,1.37
2018-07-15T09:45:52.136Z,1.40
2018-07-15T09:48:21.263Z,1.50
2018-07-15T09:50:50.377Z,1.90
2018-07-15T09:53:19.481Z,1.63
2018-07-15T09:55:48.399Z,1.60
2018-07-15T09:58:17.157Z,2.10
2018-07-15T10:00:51.551Z,1.50
2018-07-15T10:03:20.647Z,1.80
2018-07-15T10:05:49.775Z,1.50
2018-07-15T10:08:18.884Z,1.60
2018-07-15T10:10:48.192Z,1.33
2018-07-15T10:13:17.002Z,1.40
2018-07-15T10:15:46.259Z,1.60
2018-07-15T10:18:15.350Z,1.60
2018-07-15T10:20:44.242Z,1.57
2018-07-15T10:23:13.201Z,1.70
2018-07-15T10:25:42.310Z,1.53
2018-07-15T10:28:11.667Z,1.93
2018-07-15T10:30:41.631Z,1.80
2018-07-15T10:33:11.385Z,1.90
2018-07-15T10:35:40.504Z,1.77
2018-07-15T10:38:09.625Z,1.53
2018-07-15T10:40:38.759Z,1.80
2018-07-15T10:43:08.203Z,1.60
2018-07-15T10:45:37.437Z,1.70
2018-07-15T10:48:06.480Z,1.67
2018-07-15T10:50:35.538Z,2.03
2018-07-15T10:53:04.663Z,1.80
2018-07-15T10:55:33.810Z,1.53
2018-07-15T10:58:02.907Z,1.70
2018-07-15T11:00:31.829Z,1.40
2018-07-15T11:03:00.565Z,1.70
2018-07-15T11:05:29.539Z,1.50
2018-07-15T11:07:58.623Z,1.90
2018-07-15T11:10:27.836Z,1.70
2018-07-15T11:12:56.944Z,1.70
2018-07-15T11:15:26.110Z,1.70
2018-07-15T11:17:55.295Z,1.63
2018-07-15T11:20:24.449Z,1.77
2018-07-15T11:22:53.468Z,1.70
2018-07-15T11:25:22.182Z,1.40
2018-07-15T11:27:51.416Z,1.70
2018-07-15T11:30:20.593Z,1.40
2018-07-15T11:32:49.790Z,1.83
2018-07-15T11:35:18.883Z,1.80
2018-07-15T11:37:48.042Z,1.87
2018-07-15T11:40:17.845Z,1.97
2018-07-15T11:42:47.397Z,1.87
2018-07-15T11:45:16.475Z,1.90
2018-07-15T11:47:45.624Z,1.70
2018-07-15T11:50:14.709Z,1.90
2018-07-15T11:52:43.611Z,1.90
2018-07-15T11:55:12.571Z,1.70
2018-07-15T11:57:41.671Z,1.67
2018-07-15T12:00:10.874Z,1.87
2018-07-15T12:08:44.511Z,1.70
2018-07-15T12:11:17.433Z,1.70
2018-07-15T12:14:07.304Z,1.97
2018-07-15T12:16:40.400Z,1.97
2018-07-15T12:19:13.698Z,2.00
2018-07-15T12:21:50.805Z,2.10
2018-07-15T12:24:23.454Z,2.10
2018-07-15T12:26:59.931Z,1.90
2018-07-15T12:29:31.483Z,1.90
2018-07-15T12:32:25.152Z,2.00
2018-07-15T12:35:00.293Z,1.90
2018-07-15T12:37:32.257Z,2.20
2018-07-15T12:40:02.978Z,1.80
2018-07-15T12:42:32.547Z,2.17
2018-07-15T12:45:01.487Z,1.90
2018-07-15T12:47:31.198Z,1.90
2018-07-15T12:50:00.714Z,1.93
2018-07-15T12:52:30.904Z,1.93
2018-07-15T12:55:00.634Z,1.70
2018-07-15T12:57:29.843Z,1.63
2018-07-15T12:59:59.011Z,1.47
2018-07-15T13:02:28.155Z,1.73
2018-07-15T13:04:57.662Z,1.50
2018-07-15T13:07:26.899Z,1.80
2018-07-15T13:09:56.020Z,1.80
2018-07-15T13:12:25.126Z,1.97
2018-07-15T13:14:54.520Z,1.80
2018-07-15T13:17:23.704Z,2.00
2018-07-15T13:19:52.920Z,2.17
2018-07-15T13:22:22.233Z,2.20
2018-07-15T13:24:51.362Z,2.60
2018-07-15T13:27:20.486Z,2.70
2018-07-15T13:29:49.574Z,1.90
2018-07-15T13:32:18.438Z,1.77
2018-07-15T13:34:47.421Z,1.80
2018-07-15T13:37:30.071Z,1.80
2018-07-15T13:40:07.235Z,1.87
2018-07-15T13:42:48.146Z,1.77
2018-07-15T13:45:25.563Z,1.80
2018-07-15T13:48:06.444Z,1.70
2018-07-15T13:50:35.421Z,1.73
2018-07-15T13:53:04.509Z,1.97
2018-07-15T13:55:33.558Z,2.10
2018-07-15T13:58:02.398Z,1.90
2018-07-15T14:00:31.917Z,1.83
2018-07-15T14:03:00.998Z,2.00
2018-07-15T14:05:30.098Z,2.00
2018-07-15T14:07:59.200Z,2.03
2018-07-15T14:10:28.350Z,2.50
2018-07-15T14:12:57.440Z,1.60
2018-07-15T14:15:26.572Z,1.93
2018-07-15T14:17:55.708Z,1.87
2018-07-15T14:20:24.603Z,1.87
2018-07-15T14:22:53.565Z,1.60
2018-07-15T14:25:22.660Z,1.70
2018-07-15T14:27:51.788Z,1.60
2018-07-15T14:30:20.871Z,1.77
2018-07-15T14:32:49.734Z,1.80
2018-07-15T14:35:18.723Z,2.03
2018-07-15T14:37:48.286Z,3.00
2018-07-15T14:40:17.432Z,1.80
2018-07-15T14:42:46.516Z,2.00
2018-07-15T14:45:16.077Z,2.40
2018-07-15T14:47:46.497Z,2.17
2018-07-15T14:50:15.752Z,2.20
2018-07-15T14:52:44.834Z,2.10
2018-07-15T14:55:13.896Z,1.93
2018-07-15T14:57:43.078Z,2.10
2018-07-15T15:00:11.941Z,2.00
2018-07-15T15:02:41.011Z,2.30
2018-07-15T15:05:10.156Z,1.90
2018-07-15T15:07:39.215Z,2.47
2018-07-15T15:10:08.277Z,1.90
2018-07-15T15:12:37.301Z,2.33
2018-07-15T15:15:06.420Z,1.87
2018-07-15T15:17:35.560Z,2.13
2018-07-15T15:20:04.732Z,1.90
2018-07-15T15:22:33.560Z,2.27
2018-07-15T15:25:02.557Z,1.90
2018-07-15T15:27:31.716Z,2.10
2018-07-15T15:30:00.803Z,1.90
2018-07-15T15:32:29.574Z,2.00
2018-07-15T15:34:58.853Z,2.00
2018-07-15T15:37:28.013Z,2.13
2018-07-15T15:39:57.151Z,2.07
2018-07-15T15:42:26.341Z,1.90
2018-07-15T15:44:55.501Z,1.80
2018-07-15T15:47:24.502Z,2.40
2018-07-15T15:49:53.690Z,2.47
2018-07-15T15:52:22.789Z,2.10
2018-07-15T15:54:51.867Z,2.50
2018-07-15T15:57:20.957Z,2.20
2018-07-15T15:59:50.060Z,2.07
2018-07-15T16:02:19.308Z,1.90
2018-07-15T16:04:48.356Z,2.37
2018-07-15T16:07:17.318Z,2.10
2018-07-15T16:09:46.296Z,2.30
2018-07-15T16:12:15.506Z,2.20
2018-07-15T16:14:44.313Z,2.07
2018-07-15T16:17:13.310Z,2.07
2018-07-15T16:19:42.402Z,2.40
2018-07-15T16:22:11.562Z,2.13
2018-07-15T16:24:40.659Z,1.80
2018-07-15T16:27:09.845Z,2.13
2018-07-15T16:29:38.909Z,2.23
2018-07-15T16:32:08.087Z,2.33
2018-07-15T16:34:37.179Z,2.00
2018-07-15T16:37:06.287Z,2.57
2018-07-15T16:39:35.437Z,1.90
2018-07-15T16:42:05.613Z,2.10
2018-07-15T16:44:34.691Z,1.90
2018-07-15T16:47:03.827Z,2.10
2018-07-15T16:49:32.978Z,1.70
2018-07-15T16:52:02.185Z,1.93
2018-07-15T16:54:32.100Z,2.17
2018-07-15T16:57:01.307Z,1.90
2018-07-15T16:59:30.401Z,1.87
2018-07-15T17:01:59.609Z,2.00
2018-07-15T17:04:28.959Z,2.00
2018-07-15T17:06:58.033Z,2.03
2018-07-15T17:09:27.154Z,1.63
2018-07-15T17:11:55.970Z,1.70
2018-07-15T17:14:25.024Z,2.00
2018-07-15T17:16:54.401Z,1.93
2018-07-15T17:19:23.465Z,1.73
2018-07-15T17:21:52.895Z,2.50
2018-07-15T17:24:22.038Z,2.60
2018-07-15T17:26:56.196Z,2.40
2018-07-15T17:35:10.479Z,2.00
2018-07-15T17:37:44.640Z,2.23
2018-07-15T17:40:22.026Z,1.97
2018-07-15T17:46:39.240Z,2.20
2018-07-15T17:51:59.179Z,2.00
2018-07-15T17:54:35.435Z,2.23
2018-07-15T17:58:03.390Z,1.73
2018-07-15T18:07:07.908Z,1.87
2018-07-15T18:09:44.664Z,1.80
2018-07-15T18:14:11.780Z,2.00
2018-07-15T18:16:57.266Z,2.50
2018-07-15T18:19:54.048Z,2.47
2018-07-15T18:25:06.225Z,2.03
2018-07-15T18:28:03.421Z,1.90
2018-07-15T18:38:55.937Z,2.20
2018-07-15T18:41:53.350Z,2.37
2018-07-15T18:44:27.143Z,2.30
2018-07-15T18:53:32.237Z,2.30
2018-07-15T19:08:12.603Z,3.10
2018-07-15T19:10:49.437Z,3.40
2018-07-15T19:13:18.455Z,2.70
2018-07-15T19:15:47.241Z,2.50
2018-07-15T19:18:16.140Z,2.47
2018-07-15T19:20:45.574Z,2.90
2018-07-15T19:26:45.245Z,3.80
2018-07-15T19:29:16.162Z,4.87
2018-07-15T19:31:48.219Z,4.10
2018-07-15T19:34:19.490Z,4.50
2018-07-15T19:36:54.424Z,3.63
2018-07-15T19:39:23.387Z,4.07
2018-07-15T19:45:28.857Z,4.00
2018-07-15T19:48:12.374Z,3.90
2018-07-15T19:50:42.059Z,3.90
2018-07-15T19:53:12.831Z,3.70
2018-07-15T19:55:50.343Z,4.30
2018-07-15T19:58:21.220Z,4.43
2018-07-15T20:00:55.532Z,4.73
2018-07-15T20:03:28.934Z,4.90
2018-07-15T20:05:59.021Z,5.10
2018-07-15T20:08:29.744Z,4.67
2018-07-15T20:11:00.424Z,4.90
2018-07-15T20:13:34.253Z,5.37
2018-07-15T20:16:07.773Z,4.77
2018-07-15T20:18:44.037Z,5.33
2018-07-15T20:21:17.711Z,5.17
2018-07-15T20:23:46.785Z,4.67
2018-07-15T20:26:15.930Z,4.37
2018-07-15T20:28:45.200Z,4.90
2018-07-15T20:31:14.411Z,5.70
2018-07-15T20:33:44.833Z,4.90
2018-07-15T20:36:14.270Z,4.17
2018-07-15T20:38:43.519Z,4.10
2018-07-15T20:41:12.881Z,4.60
2018-07-15T20:43:42.241Z,4.83
2018-07-15T20:46:11.395Z,4.83
2018-07-15T20:48:40.580Z,4.73
2018-07-15T20:51:09.739Z,5.10
2018-07-15T20:53:38.963Z,5.47
2018-07-15T20:56:08.181Z,5.40
2018-07-15T20:58:37.491Z,5.33
2018-07-15T21:01:06.745Z,6.73
2018-07-15T21:03:35.853Z,6.47
2018-07-15T21:06:05.025Z,5.93
2018-07-15T21:08:34.135Z,4.23
2018-07-15T21:11:03.529Z,4.20
2018-07-15T21:13:32.576Z,4.73
2018-07-15T21:16:01.573Z,4.40
2018-07-15T21:18:30.664Z,3.70
2018-07-15T21:20:59.772Z,3.80
2018-07-15T21:23:28.917Z,3.60
2018-07-15T21:25:58.149Z,4.03
2018-07-15T21:28:27.465Z,3.97
2018-07-15T21:30:56.720Z,3.70
2018-07-15T21:33:25.928Z,3.50
2018-07-15T21:35:54.973Z,3.43
2018-07-15T21:38:24.047Z,3.63
2018-07-15T21:40:54.101Z,4.03
2018-07-15T21:43:23.055Z,3.90
2018-07-15T21:45:52.290Z,4.03
2018-07-15T21:48:21.113Z,3.93
2018-07-15T21:50:50.198Z,3.73
2018-07-15T21:53:19.621Z,4.37
2018-07-15T21:55:48.820Z,4.27
2018-07-15T21:58:18.032Z,3.80
2018-07-15T22:00:47.108Z,3.87
2018-07-15T22:03:16.161Z,3.77
2018-07-15T22:05:45.049Z,4.13
2018-07-15T22:08:25.306Z,4.30
2018-07-15T22:10:54.218Z,3.80
2018-07-15T22:13:22.893Z,4.17
2018-07-15T22:15:51.616Z,3.60
2018-07-15T22:18:20.723Z,4.30
2018-07-15T22:20:49.980Z,3.80
2018-07-15T22:23:19.910Z,3.97
2018-07-15T22:25:49.100Z,4.10
2018-07-15T22:28:18.265Z,4.07
2018-07-15T22:30:47.079Z,3.80
2018-07-15T22:33:15.873Z,3.90
2018-07-15T22:35:44.972Z,4.07
2018-07-15T22:38:14.126Z,3.47
2018-07-15T22:40:42.956Z,3.90
2018-07-15T22:43:12.095Z,4.20
2018-07-15T22:45:41.188Z,4.03
2018-07-15T22:48:10.284Z,4.77
2018-07-15T22:50:39.447Z,4.57
2018-07-15T22:53:08.729Z,4.43
2018-07-15T22:55:37.790Z,4.40
2018-07-15T22:58:06.579Z,5.00
2018-07-15T23:00:35.745Z,4.67
2018-07-15T23:03:04.990Z,5.27
2018-07-15T23:05:46.851Z,4.70
2018-07-15T23:08:15.878Z,5.00
2018-07-15T23:10:45.168Z,4.57
2018-07-15T23:13:14.499Z,4.53
2018-07-15T23:15:44.045Z,5.03
2018-07-15T23:18:13.317Z,5.27
2018-07-15T23:20:44.144Z,5.40
2018-07-15T23:23:14.053Z,5.60
2018-07-15T23:25:43.269Z,5.50
2018-07-15T23:28:13.616Z,5.53
2018-07-15T23:30:43.330Z,5.50
2018-07-15T23:33:12.513Z,5.73
2018-07-15T23:35:41.678Z,5.67
2018-07-15T23:38:10.963Z,6.00
2018-07-15T23:40:40.364Z,5.80
2018-07-15T23:43:09.743Z,6.47
2018-07-15T23:45:38.634Z,6.50
2018-07-15T23:48:07.599Z,6.40
2018-07-15T23:50:36.825Z,6.17
2018-07-15T23:53:06.013Z,7.00
2018-07-15T23:55:35.095Z,6.63
2018-07-15T23:58:04.130Z,6.50
